createdAt,value
2023-03-02T00:00:34.860Z,32.58
2023-03-02T00:02:40.715Z,29.17
2023-03-02T00:04:47.758Z,26.75
2023-03-02T00:08:53.934Z,31.10
2023-03-02T00:10:57.622Z,29.75
2023-03-02T00:13:00.586Z,30.55
2023-03-02T00:15:05.186Z,27.23
2023-03-02T00:17:08.344Z,29.15
2023-03-02T00:19:11.000Z,25.95
2023-03-02T00:21:13.697Z,31.38
2023-03-02T00:23:16.884Z,27.92
2023-03-02T00:25:20.093Z,33.22
2023-03-02T00:27:23.463Z,27.67
2023-03-02T00:29:26.268Z,29.85
2023-03-02T00:31:30.532Z,29.50
2023-03-02T00:33:33.504Z,32.22
2023-03-02T00:35:39.016Z,28.30
2023-03-02T00:37:41.816Z,34.75
2023-03-02T00:39:44.622Z,32.30
2023-03-02T00:41:48.648Z,32.20
2023-03-02T00:43:51.818Z,32.40
2023-03-02T00:45:54.784Z,31.90
2023-03-02T00:47:58.800Z,29.33
2023-03-02T00:50:02.093Z,31.23
2023-03-02T00:52:04.942Z,27.60
2023-03-02T00:54:07.645Z,29.27
2023-03-02T00:56:10.512Z,38.28
2023-03-02T00:58:13.203Z,34.00
2023-03-02T01:00:16.566Z,30.30
2023-03-02T01:02:21.525Z,29.60
2023-03-02T01:04:29.637Z,31.23
2023-03-02T01:06:32.730Z,30.85
2023-03-02T01:08:37.802Z,28.80
2023-03-02T01:10:40.899Z,31.40
2023-03-02T01:12:43.640Z,30.50
2023-03-02T01:14:48.412Z,31.15
2023-03-02T01:16:51.318Z,31.95
2023-03-02T01:18:54.058Z,29.10
2023-03-02T01:21:03.832Z,35.90
2023-03-02T01:23:06.702Z,29.23
2023-03-02T01:25:09.624Z,35.55
2023-03-02T01:27:12.736Z,29.77
2023-03-02T01:29:15.488Z,34.83
2023-03-02T01:31:18.140Z,31.35
2023-03-02T01:33:21.363Z,29.55
2023-03-02T01:35:24.140Z,29.42
2023-03-02T01:37:28.246Z,28.33
2023-03-02T01:39:33.904Z,34.15
2023-03-02T01:41:36.600Z,34.63
2023-03-02T01:43:39.901Z,30.45
2023-03-02T01:45:51.721Z,34.17
2023-03-02T01:47:54.610Z,32.28
2023-03-02T01:50:01.493Z,32.67
2023-03-02T01:52:04.542Z,32.88
2023-03-02T01:54:17.129Z,34.70
2023-03-02T01:56:25.041Z,32.72
2023-03-02T01:58:29.777Z,33.63
2023-03-02T02:00:36.406Z,33.63
2023-03-02T02:02:41.988Z,32.78
2023-03-02T02:04:48.330Z,35.78
2023-03-02T02:06:56.686Z,33.65
2023-03-02T02:09:02.253Z,34.22
2023-03-02T02:11:07.011Z,33.72
2023-03-02T02:13:11.596Z,32.80
2023-03-02T02:15:14.327Z,36.00
2023-03-02T02:17:18.659Z,33.60
2023-03-02T02:19:36.420Z,34.58
2023-03-02T02:21:39.169Z,33.60
2023-03-02T02:23:50.273Z,34.13
2023-03-02T02:26:11.504Z,34.72
2023-03-02T02:28:19.075Z,31.00
2023-03-02T02:30:23.080Z,37.13
2023-03-02T02:32:28.153Z,32.55
2023-03-02T02:34:35.555Z,33.72
2023-03-02T02:36:45.097Z,38.83
2023-03-02T02:38:51.080Z,31.13
2023-03-02T02:40:57.372Z,37.30
2023-03-02T02:43:01.620Z,35.67
2023-03-02T02:45:07.891Z,36.00
2023-03-02T02:47:18.291Z,34.97
2023-03-02T02:49:30.383Z,35.15
2023-03-02T02:51:34.418Z,36.15
2023-03-02T02:53:43.769Z,33.20
2023-03-02T02:55:48.325Z,32.35
2023-03-02T02:57:52.832Z,36.05
2023-03-02T02:59:59.749Z,34.85
2023-03-02T03:02:02.554Z,35.88
2023-03-02T03:04:07.216Z,40.75
2023-03-02T03:06:17.776Z,37.92
2023-03-02T03:08:59.056Z,33.95
2023-03-02T03:11:02.438Z,35.40
2023-03-02T03:13:05.323Z,31.73
2023-03-02T03:15:10.534Z,35.05
2023-03-02T03:17:13.927Z,38.05
2023-03-02T03:19:21.338Z,40.42
2023-03-02T03:21:24.282Z,31.90
2023-03-02T03:23:27.082Z,37.30
2023-03-02T03:25:29.776Z,33.83
2023-03-02T03:27:32.695Z,36.05
2023-03-02T03:29:37.070Z,33.80
2023-03-02T03:31:41.694Z,33.60
2023-03-02T03:33:44.722Z,38.40
2023-03-02T03:35:47.481Z,33.88
2023-03-02T03:37:51.737Z,36.08
2023-03-02T03:39:54.620Z,38.45
2023-03-02T03:41:57.471Z,38.40
2023-03-02T03:44:00.165Z,33.70
2023-03-02T03:46:02.899Z,35.28
2023-03-02T03:48:07.541Z,35.70
2023-03-02T03:50:11.393Z,31.23
2023-03-02T03:52:14.275Z,35.20
2023-03-02T03:54:17.071Z,42.65
2023-03-02T03:56:19.792Z,36.50
2023-03-02T03:58:22.521Z,32.95
2023-03-02T04:00:25.423Z,37.67
2023-03-02T04:02:28.129Z,33.53
2023-03-02T04:04:34.285Z,31.90
2023-03-02T04:06:37.117Z,33.33
2023-03-02T04:08:39.943Z,31.38
2023-03-02T04:10:43.062Z,30.75
2023-03-02T04:12:46.035Z,36.25
2023-03-02T04:14:48.783Z,39.80
2023-03-02T04:16:51.935Z,36.65
2023-03-02T04:18:54.795Z,36.40
2023-03-02T04:20:58.860Z,32.80
2023-03-02T04:27:24.631Z,36.78
2023-03-02T04:29:27.324Z,35.97
2023-03-02T04:31:31.299Z,35.10
2023-03-02T04:33:34.313Z,35.25
2023-03-02T04:35:37.047Z,41.92
2023-03-02T04:37:42.071Z,36.40
2023-03-02T04:39:51.249Z,38.08
2023-03-02T04:41:55.706Z,32.25
2023-03-02T04:43:58.500Z,34.63
2023-03-02T04:46:03.091Z,37.53
2023-03-02T04:48:06.368Z,38.17
2023-03-02T04:50:11.265Z,37.15
2023-03-02T04:52:16.934Z,39.03
2023-03-02T04:54:24.575Z,36.78
2023-03-02T04:56:27.659Z,34.92
2023-03-02T04:58:30.265Z,39.53
2023-03-02T05:00:33.978Z,35.78
2023-03-02T05:02:37.564Z,35.40
2023-03-02T05:04:42.299Z,38.42
2023-03-02T05:06:45.238Z,40.25
2023-03-02T05:08:47.908Z,35.90
2023-03-02T05:10:51.931Z,35.88
2023-03-02T05:13:01.631Z,43.38
2023-03-02T05:15:04.441Z,38.10
2023-03-02T05:17:07.025Z,45.72
2023-03-02T05:19:12.505Z,41.92
2023-03-02T05:21:16.664Z,38.25
2023-03-02T05:23:25.709Z,40.88
2023-03-02T05:25:31.329Z,46.97
2023-03-02T05:27:36.813Z,39.08
2023-03-02T05:29:39.476Z,34.90
2023-03-02T05:31:44.733Z,37.92
2023-03-02T05:33:47.730Z,41.85
2023-03-02T05:35:50.405Z,37.42
2023-03-02T05:37:53.042Z,36.40
2023-03-02T05:39:55.685Z,33.72
2023-03-02T05:42:00.123Z,35.75
2023-03-02T05:44:04.664Z,37.50
2023-03-02T05:46:07.628Z,29.58
2023-03-02T05:48:13.004Z,33.28
2023-03-02T05:50:16.031Z,37.38
2023-03-02T05:52:18.621Z,36.05
2023-03-02T05:54:21.260Z,35.97
2023-03-02T05:56:23.840Z,32.67
2023-03-02T05:58:26.461Z,37.42
2023-03-02T06:00:30.468Z,32.10
2023-03-02T06:02:33.167Z,34.63
2023-03-02T06:04:42.879Z,32.88
2023-03-02T06:06:45.552Z,36.90
2023-03-02T06:08:48.259Z,37.08
2023-03-02T06:10:51.599Z,35.35
2023-03-02T06:12:54.371Z,36.17
2023-03-02T06:14:56.987Z,38.45
2023-03-02T06:17:01.244Z,36.65
2023-03-02T06:19:04.327Z,37.30
2023-03-02T06:21:07.355Z,33.47
2023-03-02T06:23:11.342Z,35.35
2023-03-02T06:25:15.965Z,34.47
2023-03-02T06:27:18.648Z,37.20
2023-03-02T06:29:21.525Z,34.97
2023-03-02T06:31:24.134Z,35.22
2023-03-02T06:33:28.162Z,33.10
2023-03-02T06:35:30.909Z,41.10
2023-03-02T06:37:33.845Z,29.60
2023-03-02T06:39:36.517Z,31.38
2023-03-02T06:41:39.154Z,37.10
2023-03-02T06:43:41.876Z,39.10
2023-03-02T06:45:44.558Z,34.75
2023-03-02T06:47:47.198Z,35.90
2023-03-02T06:49:51.143Z,31.98
2023-03-02T06:51:53.729Z,35.03
2023-03-02T06:53:56.376Z,35.70
2023-03-02T06:55:59.058Z,36.92
2023-03-02T06:58:01.690Z,43.15
2023-03-02T07:00:10.020Z,38.58
2023-03-02T07:02:12.979Z,32.20
2023-03-02T07:04:15.577Z,29.58
2023-03-02T07:06:19.559Z,38.42
2023-03-02T07:08:22.198Z,29.73
2023-03-02T07:10:24.783Z,32.78
2023-03-02T07:12:27.377Z,33.95
2023-03-02T07:14:30.007Z,30.52
2023-03-02T07:16:35.077Z,33.97
2023-03-02T07:18:37.860Z,34.35
2023-03-02T07:20:40.546Z,31.15
2023-03-02T07:22:45.494Z,39.35
2023-03-02T07:24:48.285Z,32.53
2023-03-02T07:26:50.914Z,39.38
2023-03-02T07:28:53.490Z,34.53
2023-03-02T07:30:56.425Z,30.75
2023-03-02T07:32:59.182Z,35.47
2023-03-02T07:35:01.975Z,33.10
2023-03-02T07:37:04.725Z,33.72
2023-03-02T07:39:08.729Z,35.58
2023-03-02T07:41:12.307Z,34.03
2023-03-02T07:43:15.028Z,35.95
2023-03-02T07:45:20.199Z,37.45
2023-03-02T07:47:22.888Z,32.65
2023-03-02T07:49:25.478Z,33.30
2023-03-02T07:51:28.213Z,37.22
2023-03-02T07:53:31.021Z,34.28
2023-03-02T07:55:35.059Z,33.15
2023-03-02T07:57:37.986Z,29.05
2023-03-02T07:59:40.599Z,29.45
2023-03-02T08:01:43.272Z,27.02
2023-03-02T08:03:45.935Z,35.63
2023-03-02T08:05:48.534Z,34.30
2023-03-02T08:07:51.316Z,39.30
2023-03-02T08:09:53.996Z,34.78
2023-03-02T08:11:58.001Z,28.20
2023-03-02T08:14:01.590Z,34.88
2023-03-02T08:16:06.852Z,29.42
2023-03-02T08:18:09.516Z,28.52
2023-03-02T08:20:12.824Z,31.85
2023-03-02T08:22:15.468Z,30.38
2023-03-02T08:24:18.127Z,35.78
2023-03-02T08:26:21.658Z,31.27
2023-03-02T08:28:25.604Z,28.77
2023-03-02T08:30:28.302Z,28.27
2023-03-02T08:32:30.970Z,29.15
2023-03-02T08:34:33.570Z,27.23
2023-03-02T08:36:36.237Z,30.55
2023-03-02T08:38:38.913Z,30.65
2023-03-02T08:40:41.592Z,29.65
2023-03-02T08:42:44.253Z,33.08
2023-03-02T08:44:48.252Z,30.88
2023-03-02T08:46:51.507Z,30.52
2023-03-02T08:48:54.164Z,26.60
2023-03-02T08:50:58.164Z,30.50
2023-03-02T08:53:00.831Z,29.02
2023-03-02T08:55:04.267Z,29.80
2023-03-02T08:57:11.735Z,30.88
2023-03-02T08:59:14.642Z,30.05
2023-03-02T09:01:21.490Z,29.58
2023-03-02T09:03:24.127Z,25.27
2023-03-02T09:05:26.718Z,25.65
2023-03-02T09:07:30.760Z,27.15
2023-03-02T09:09:33.417Z,29.00
2023-03-02T09:11:36.234Z,27.88
2023-03-02T09:13:39.060Z,28.40
2023-03-02T09:15:41.705Z,28.08
2023-03-02T09:17:45.758Z,25.23
2023-03-02T09:19:48.595Z,28.50
2023-03-02T09:21:51.336Z,29.67
2023-03-02T09:23:57.900Z,26.83
2023-03-02T09:26:00.704Z,30.90
2023-03-02T09:28:03.297Z,23.65
2023-03-02T09:30:07.058Z,28.42
2023-03-02T09:32:09.744Z,23.55
2023-03-02T09:34:13.755Z,24.85
2023-03-02T09:36:23.127Z,27.10
2023-03-02T09:38:26.003Z,22.33
2023-03-02T09:40:29.530Z,27.40
2023-03-02T09:42:58.008Z,23.20
2023-03-02T09:45:19.035Z,24.35
2023-03-02T09:47:35.406Z,24.33
2023-03-02T09:49:53.714Z,24.02
2023-03-02T09:52:09.102Z,24.30
2023-03-02T09:54:14.255Z,21.88
2023-03-02T09:56:19.468Z,24.88
2023-03-02T09:58:25.576Z,25.15
2023-03-02T10:00:32.754Z,24.05
2023-03-02T10:02:39.013Z,22.77
2023-03-02T10:04:47.896Z,28.23
2023-03-02T10:06:56.846Z,24.77
2023-03-02T10:08:59.602Z,28.02
2023-03-02T10:11:10.374Z,26.90
2023-03-02T10:13:23.237Z,22.25
2023-03-02T10:15:36.694Z,27.30
2023-03-02T10:17:54.218Z,26.08
2023-03-02T10:20:04.067Z,23.65
2023-03-02T10:22:13.288Z,25.55
2023-03-02T10:24:25.494Z,28.08
2023-03-02T10:26:39.584Z,26.25
2023-03-02T10:28:49.337Z,27.90
2023-03-02T10:30:58.906Z,26.50
2023-03-02T10:33:10.614Z,25.42
2023-03-02T10:35:17.834Z,26.48
2023-03-02T10:37:24.957Z,26.65
2023-03-02T10:39:27.656Z,22.95
2023-03-02T10:41:33.972Z,25.67
2023-03-02T10:43:41.327Z,27.67
2023-03-02T10:45:43.933Z,24.10
2023-03-02T10:47:46.545Z,22.05
2023-03-02T10:49:49.729Z,23.45
2023-03-02T10:51:59.055Z,24.58
2023-03-02T10:54:06.942Z,27.13
2023-03-02T10:56:21.360Z,21.75
2023-03-02T10:58:27.532Z,26.05
2023-03-02T11:00:32.217Z,25.20
2023-03-02T11:02:37.426Z,24.98
2023-03-02T11:04:40.422Z,26.08
2023-03-02T11:06:43.171Z,25.20
2023-03-02T11:08:47.183Z,21.45
2023-03-02T11:10:58.241Z,25.38
2023-03-02T11:13:17.019Z,23.75
2023-03-02T11:15:25.521Z,24.83
2023-03-02T11:17:32.987Z,25.55
2023-03-02T11:19:38.542Z,27.58
2023-03-02T11:21:46.298Z,25.13
2023-03-02T11:24:01.467Z,24.95
2023-03-02T11:26:14.429Z,25.52
2023-03-02T11:28:27.769Z,26.58
2023-03-02T11:30:35.470Z,24.35
2023-03-02T11:32:42.872Z,23.05
2023-03-02T11:34:50.140Z,20.95
2023-03-02T11:37:02.409Z,24.23
2023-03-02T11:39:12.394Z,25.58
2023-03-02T11:41:27.279Z,24.60
2023-03-02T11:43:30.304Z,25.05
2023-03-02T11:45:37.778Z,24.58
2023-03-02T11:47:44.302Z,26.65
2023-03-02T11:49:54.764Z,24.80
2023-03-02T11:52:01.044Z,21.88
2023-03-02T11:54:12.949Z,24.50
2023-03-02T11:56:16.060Z,23.48
2023-03-02T11:58:21.390Z,22.80
2023-03-02T12:00:31.479Z,24.67
2023-03-02T12:02:34.262Z,26.67
2023-03-02T12:04:39.723Z,27.70
2023-03-02T12:06:44.047Z,26.25
2023-03-02T12:08:47.999Z,24.50
2023-03-02T12:11:00.802Z,26.27
2023-03-02T12:15:35.980Z,26.75
2023-03-02T12:17:39.667Z,26.30
2023-03-02T12:19:45.085Z,25.75
2023-03-02T12:21:58.027Z,24.40
2023-03-02T12:24:03.892Z,22.85
2023-03-02T12:26:24.153Z,23.95
2023-03-02T12:28:30.533Z,25.20
2023-03-02T12:30:33.228Z,23.20
2023-03-02T12:32:36.011Z,24.58
2023-03-02T12:34:40.321Z,26.80
2023-03-02T12:36:44.880Z,23.25
2023-03-02T12:39:01.949Z,23.52
2023-03-02T12:41:22.172Z,22.75
2023-03-02T12:43:32.036Z,22.35
2023-03-02T12:45:48.764Z,23.95
2023-03-02T12:47:59.169Z,20.85
2023-03-02T12:50:05.202Z,21.35
2023-03-02T12:52:23.884Z,28.33
2023-03-02T12:54:28.792Z,25.48
2023-03-02T12:56:32.970Z,22.17
2023-03-02T12:58:35.642Z,21.05
2023-03-02T13:00:38.266Z,25.02
2023-03-02T13:02:48.315Z,25.00
2023-03-02T13:04:55.273Z,21.92
2023-03-02T13:06:57.964Z,21.45
2023-03-02T13:09:01.083Z,21.10
2023-03-02T13:11:04.858Z,24.15
2023-03-02T13:13:17.532Z,25.77
2023-03-02T13:15:20.494Z,19.83
2023-03-02T13:17:26.162Z,19.40
2023-03-02T13:19:30.638Z,23.95
2023-03-02T13:21:38.156Z,19.85
2023-03-02T13:23:47.581Z,21.67
2023-03-02T13:25:52.547Z,22.75
2023-03-02T13:27:57.536Z,19.73
2023-03-02T13:30:13.280Z,22.13
2023-03-02T13:32:21.925Z,21.98
2023-03-02T13:34:26.141Z,18.15
2023-03-02T13:36:31.798Z,19.70
2023-03-02T13:38:38.885Z,17.58
2023-03-02T13:40:44.664Z,18.20
2023-03-02T13:42:47.405Z,19.17
2023-03-02T13:44:50.094Z,22.52
2023-03-02T13:46:54.090Z,23.88
2023-03-02T13:49:09.122Z,25.45
2023-03-02T13:51:17.946Z,21.50
2023-03-02T13:53:20.951Z,19.05
2023-03-02T13:55:24.000Z,17.25
2023-03-02T13:57:31.219Z,21.42
2023-03-02T13:59:36.450Z,19.15
2023-03-02T14:01:41.337Z,20.50
2023-03-02T14:03:45.281Z,18.00
2023-03-02T14:05:47.981Z,24.13
2023-03-02T14:07:50.901Z,22.60
2023-03-02T14:09:53.825Z,20.20
2023-03-02T14:11:57.797Z,17.75
2023-03-02T14:14:02.057Z,21.60
2023-03-02T14:16:05.355Z,22.65
2023-03-02T14:18:31.865Z,18.85
2023-03-02T14:20:35.849Z,22.85
2023-03-02T14:22:38.909Z,23.17
2023-03-02T14:24:41.562Z,21.48
2023-03-02T14:26:46.344Z,20.77
2023-03-02T14:28:53.613Z,26.42
2023-03-02T14:31:02.741Z,21.52
2023-03-02T14:33:05.415Z,23.73
2023-03-02T14:35:11.560Z,21.80
2023-03-02T14:37:18.440Z,22.98
2023-03-02T14:39:23.803Z,19.65
2023-03-02T14:41:28.369Z,22.83
2023-03-02T14:43:31.005Z,23.80
2023-03-02T14:45:33.656Z,22.10
2023-03-02T14:47:36.231Z,24.48
2023-03-02T14:49:39.313Z,21.85
2023-03-02T14:51:45.027Z,19.33
2023-03-02T14:53:50.573Z,21.33
2023-03-02T14:55:53.203Z,24.95
2023-03-02T14:57:58.890Z,23.20
2023-03-02T15:00:01.568Z,21.77
2023-03-02T15:02:15.940Z,22.17
2023-03-02T15:04:25.432Z,23.58
2023-03-02T15:06:29.968Z,22.25
2023-03-02T15:08:32.585Z,23.52
2023-03-02T15:10:36.561Z,21.75
2023-03-02T15:12:39.173Z,22.33
2023-03-02T15:14:41.819Z,22.00
2023-03-02T15:16:44.457Z,23.65
2023-03-02T15:18:49.528Z,25.95
2023-03-02T15:20:52.105Z,22.83
2023-03-02T15:22:54.839Z,24.90
2023-03-02T15:24:57.460Z,22.20
2023-03-02T15:27:01.785Z,22.40
2023-03-02T15:29:04.403Z,23.65
2023-03-02T15:31:08.347Z,25.40
2023-03-02T15:33:10.995Z,23.80
2023-03-02T15:35:13.612Z,24.20
2023-03-02T15:37:16.323Z,24.55
2023-03-02T15:39:18.981Z,23.42
2023-03-02T15:41:21.687Z,22.83
2023-03-02T15:43:25.698Z,27.40
2023-03-02T15:45:28.854Z,22.98
2023-03-02T15:47:33.413Z,25.48
2023-03-02T15:49:36.054Z,24.70
2023-03-02T15:51:38.709Z,21.70
2023-03-02T15:53:41.626Z,25.70
2023-03-02T15:55:44.354Z,21.25
2023-03-02T15:57:47.014Z,23.88
2023-03-02T15:59:51.083Z,23.75
2023-03-02T16:01:54.710Z,22.48
2023-03-02T16:04:00.034Z,23.15
2023-03-02T16:06:03.217Z,26.02
2023-03-02T16:08:06.252Z,23.05
2023-03-02T16:10:15.001Z,23.83
2023-03-02T16:12:18.606Z,24.17
2023-03-02T16:14:21.268Z,22.80
2023-03-02T16:16:26.114Z,26.45
2023-03-02T16:18:29.021Z,20.50
2023-03-02T16:20:31.647Z,22.85
2023-03-02T16:22:34.288Z,22.88
2023-03-02T16:24:37.025Z,23.77
2023-03-02T16:26:39.955Z,27.23
2023-03-02T16:28:42.927Z,26.00
2023-03-02T16:30:46.173Z,22.83
2023-03-02T16:32:50.234Z,23.70
2023-03-02T16:34:55.089Z,23.27
2023-03-02T16:36:57.726Z,24.42
2023-03-02T16:39:00.393Z,27.48
2023-03-02T16:41:03.232Z,27.60
2023-03-02T16:43:08.746Z,22.75
2023-03-02T16:45:12.099Z,27.23
2023-03-02T16:47:14.718Z,23.13
2023-03-02T16:49:18.770Z,26.38
2023-03-02T16:51:22.550Z,23.88
2023-03-02T16:53:25.528Z,22.42
2023-03-02T16:55:28.510Z,23.25
2023-03-02T16:57:31.129Z,22.80
2023-03-02T16:59:33.707Z,21.95
2023-03-02T17:01:36.515Z,22.30
2023-03-02T17:03:39.380Z,23.55
2023-03-02T17:05:43.526Z,25.63
2023-03-02T17:07:46.440Z,26.52
2023-03-02T17:09:49.132Z,26.38
2023-03-02T17:11:51.708Z,23.42
2023-03-02T17:13:54.360Z,26.13
2023-03-02T17:15:58.122Z,25.08
2023-03-02T17:18:01.204Z,28.08
2023-03-02T17:20:03.878Z,32.63
2023-03-02T17:22:07.887Z,28.25
2023-03-02T17:24:10.765Z,26.58
2023-03-02T17:26:13.434Z,24.92
2023-03-02T17:28:16.727Z,27.58
2023-03-02T17:30:20.204Z,27.23
2023-03-02T17:32:24.275Z,29.60
2023-03-02T17:34:30.532Z,27.05
2023-03-02T17:36:36.524Z,30.20
2023-03-02T17:38:41.328Z,25.17
2023-03-02T17:40:44.333Z,27.33
2023-03-02T17:42:46.976Z,29.42
2023-03-02T17:44:49.675Z,26.02
2023-03-02T17:46:52.327Z,29.65
2023-03-02T17:48:56.584Z,35.17
2023-03-02T17:50:59.242Z,32.58
2023-03-02T17:53:02.979Z,31.15
2023-03-02T17:55:08.066Z,28.00
2023-03-02T17:57:11.825Z,29.75
2023-03-02T17:59:14.706Z,26.65
2023-03-02T18:01:17.334Z,30.00
2023-03-02T18:03:20.299Z,35.55
2023-03-02T18:05:23.208Z,30.75
2023-03-02T18:07:25.928Z,31.98
2023-03-02T18:09:28.579Z,30.05
2023-03-02T18:11:33.175Z,33.47
2023-03-02T18:13:35.915Z,33.22
2023-03-02T18:15:38.587Z,34.40
2023-03-02T18:17:41.479Z,30.33
2023-03-02T18:19:45.571Z,31.17
2023-03-02T18:21:48.437Z,36.28
2023-03-02T18:23:51.094Z,31.70
2023-03-02T18:25:53.740Z,28.75
2023-03-02T18:27:57.894Z,31.90
2023-03-02T18:30:00.691Z,35.95
2023-03-02T18:32:03.423Z,37.55
2023-03-02T18:34:06.136Z,32.40
2023-03-02T18:36:09.728Z,32.33
2023-03-02T18:38:12.353Z,32.55
2023-03-02T18:40:15.494Z,33.45
2023-03-02T18:42:18.245Z,41.47
2023-03-02T18:44:22.287Z,33.55
2023-03-02T18:46:27.216Z,33.38
2023-03-02T18:48:29.941Z,30.25
2023-03-02T18:50:32.566Z,32.97
2023-03-02T18:52:35.228Z,34.17
2023-03-02T18:54:38.706Z,34.70
2023-03-02T18:56:41.415Z,36.45
2023-03-02T18:58:44.903Z,31.50
2023-03-02T19:00:49.368Z,31.92
2023-03-02T19:02:52.340Z,36.88
2023-03-02T19:04:54.966Z,33.35
2023-03-02T19:07:00.664Z,31.08
2023-03-02T19:09:03.477Z,38.95
2023-03-02T19:11:06.884Z,36.58
2023-03-02T19:13:11.505Z,33.33
2023-03-02T19:15:14.482Z,31.90
2023-03-02T19:17:18.484Z,32.95
2023-03-02T19:19:21.263Z,33.33
2023-03-02T19:21:23.965Z,36.15
2023-03-02T19:23:26.648Z,33.28
2023-03-02T19:25:29.617Z,35.25
2023-03-02T19:27:32.371Z,38.42
2023-03-02T19:29:35.071Z,39.05
2023-03-02T19:31:39.013Z,38.05
2023-03-02T19:33:45.181Z,35.45
2023-03-02T19:35:47.883Z,34.60
2023-03-02T19:37:50.654Z,35.53
2023-03-02T19:39:53.358Z,39.60
2023-03-02T19:41:56.054Z,40.15
2023-03-02T19:43:59.031Z,33.97
2023-03-02T19:46:01.782Z,34.67
2023-03-02T19:48:05.788Z,36.75
2023-03-02T19:50:11.154Z,39.00
2023-03-02T19:52:13.802Z,38.20
2023-03-02T19:54:16.505Z,39.03
2023-03-02T19:56:20.949Z,40.13
2023-03-02T19:58:23.655Z,39.55
2023-03-02T20:00:27.549Z,40.13
2023-03-02T20:02:30.334Z,38.38
2023-03-02T20:04:33.612Z,34.55
2023-03-02T20:06:38.004Z,34.13
2023-03-02T20:08:40.703Z,36.90
2023-03-02T20:10:45.341Z,34.10
2023-03-02T20:12:48.131Z,40.72
2023-03-02T20:14:52.764Z,37.00
2023-03-02T20:16:55.590Z,36.97
2023-03-02T20:19:01.934Z,36.10
2023-03-02T20:21:05.029Z,38.80
2023-03-02T20:23:09.259Z,40.10
2023-03-02T20:25:12.780Z,40.38
2023-03-02T20:27:15.656Z,44.63
2023-03-02T20:29:18.482Z,40.08
2023-03-02T20:31:21.179Z,36.42
2023-03-02T20:33:26.930Z,38.50
2023-03-02T20:35:32.715Z,42.33
2023-03-02T20:37:35.495Z,38.17
2023-03-02T20:39:41.865Z,39.28
2023-03-02T20:41:45.380Z,36.28
2023-03-02T20:43:48.090Z,37.75
2023-03-02T20:45:51.250Z,36.00
2023-03-02T20:47:54.339Z,37.88
2023-03-02T20:49:57.103Z,39.45
2023-03-02T20:52:00.787Z,40.60
2023-03-02T20:54:04.743Z,37.67
2023-03-02T20:56:11.195Z,36.10
2023-03-02T20:58:14.355Z,35.75
2023-03-02T21:00:21.604Z,40.13
2023-03-02T21:02:24.464Z,42.28
2023-03-02T21:04:27.359Z,42.92
2023-03-02T21:06:33.300Z,44.67
2023-03-02T21:08:39.236Z,36.42
2023-03-02T21:10:43.519Z,39.60
2023-03-02T21:12:49.006Z,39.33
2023-03-02T21:14:51.848Z,38.28
2023-03-02T21:16:54.985Z,35.42
2023-03-02T21:18:57.669Z,38.08
2023-03-02T21:21:00.401Z,35.67
2023-03-02T21:23:03.218Z,38.47
2023-03-02T21:25:08.914Z,45.35
2023-03-02T21:27:11.717Z,39.80
2023-03-02T21:29:17.799Z,39.13
2023-03-02T21:31:21.141Z,39.22
2023-03-02T21:33:23.790Z,39.90
2023-03-02T21:35:26.579Z,38.10
2023-03-02T21:37:29.399Z,40.47
2023-03-02T21:39:32.203Z,42.85
2023-03-02T21:41:35.659Z,36.90
2023-03-02T21:43:38.434Z,38.28
2023-03-02T21:45:42.701Z,41.05
2023-03-02T21:47:46.104Z,41.03
2023-03-02T21:49:48.746Z,40.08
2023-03-02T21:51:51.432Z,40.38
2023-03-02T21:53:54.132Z,38.85
2023-03-02T21:55:56.739Z,40.72
2023-03-02T21:57:59.849Z,39.70
2023-03-02T22:00:04.642Z,39.45
2023-03-02T22:02:08.705Z,42.67
2023-03-02T22:04:11.400Z,41.65
2023-03-02T22:06:18.184Z,38.10
2023-03-02T22:08:21.777Z,38.97
2023-03-02T22:10:30.212Z,41.95
2023-03-02T22:12:32.885Z,36.85
2023-03-02T22:14:35.526Z,38.58
2023-03-02T22:16:39.432Z,38.08
2023-03-02T22:18:45.281Z,38.63
2023-03-02T22:20:49.957Z,42.63
2023-03-02T22:22:55.101Z,44.10
2023-03-02T22:24:57.704Z,35.08
2023-03-02T22:27:02.854Z,38.33
2023-03-02T22:29:14.134Z,38.55
2023-03-02T22:31:20.329Z,41.78
2023-03-02T22:33:25.892Z,40.10
2023-03-02T22:35:29.870Z,41.53
2023-03-02T22:37:35.691Z,37.45
2023-03-02T22:39:41.002Z,38.78
2023-03-02T22:41:44.883Z,44.35
2023-03-02T22:43:49.347Z,41.88
2023-03-02T22:45:52.879Z,39.63
2023-03-02T22:47:55.671Z,42.90
2023-03-02T22:50:01.583Z,44.67
2023-03-02T22:52:13.855Z,38.40
2023-03-02T22:54:23.459Z,44.42
2023-03-02T22:56:31.286Z,44.85
2023-03-02T22:58:46.383Z,42.90
2023-03-02T23:00:49.336Z,48.55
2023-03-02T23:02:54.350Z,51.22
2023-03-02T23:04:56.979Z,44.35
2023-03-02T23:07:02.595Z,36.28
2023-03-02T23:09:07.365Z,40.95
2023-03-02T23:11:17.188Z,39.33
2023-03-02T23:13:22.310Z,38.75
2023-03-02T23:15:25.030Z,39.17
2023-03-02T23:17:35.255Z,39.58
2023-03-02T23:19:37.903Z,37.95
2023-03-02T23:21:45.683Z,37.03
2023-03-02T23:23:49.644Z,38.70
2023-03-02T23:25:53.689Z,38.60
2023-03-02T23:27:56.342Z,40.72
2023-03-02T23:29:58.962Z,34.20
2023-03-02T23:32:01.747Z,39.80
2023-03-02T23:34:05.198Z,38.72
2023-03-02T23:36:08.442Z,39.80
2023-03-02T23:38:11.012Z,36.45
2023-03-02T23:40:13.978Z,37.78
2023-03-02T23:42:17.920Z,33.28
2023-03-02T23:44:20.767Z,40.60
2023-03-02T23:46:23.694Z,35.00
2023-03-02T23:48:26.364Z,36.75
2023-03-02T23:50:29.040Z,39.05
2023-03-02T23:52:31.687Z,37.67
2023-03-02T23:54:34.406Z,39.60
2023-03-02T23:56:37.682Z,43.85
2023-03-02T23:58:41.946Z,35.47
